sensor_id;sensor_type;location;lat;lon;timestamp;P1;durP1;ratioP1;P2;durP2;ratioP2
46653;SDS011;38960;51.074;17.004;2023-08-24T00:01:40;19.73;;;17.95;;
46653;SDS011;38960;51.074;17.004;2023-08-24T00:04:06;19.95;;;18.08;;
46653;SDS011;38960;51.074;17.004;2023-08-24T00:06:33;19.58;;;17.65;;
46653;SDS011;38960;51.074;17.004;2023-08-24T00:08:58;19.75;;;17.85;;
46653;SDS011;38960;51.074;17.004;2023-08-24T00:11:24;19.23;;;17.67;;
46653;SDS011;38960;51.074;17.004;2023-08-24T00:13:50;19.25;;;17.60;;
46653;SDS011;38960;51.074;17.004;2023-08-24T00:16:16;20.05;;;18.65;;
46653;SDS011;38960;51.074;17.004;2023-08-24T00:18:42;19.38;;;17.65;;
46653;SDS011;38960;51.074;17.004;2023-08-24T00:21:08;20.00;;;18.60;;
46653;SDS011;38960;51.074;17.004;2023-08-24T00:23:33;21.13;;;19.08;;
46653;SDS011;38960;51.074;17.004;2023-08-24T00:25:59;20.08;;;18.42;;
46653;SDS011;38960;51.074;17.004;2023-08-24T00:28:25;20.67;;;19.02;;
46653;SDS011;38960;51.074;17.004;2023-08-24T00:30:52;20.63;;;19.02;;
46653;SDS011;38960;51.074;17.004;2023-08-24T00:33:18;20.65;;;19.00;;
46653;SDS011;38960;51.074;17.004;2023-08-24T00:35:44;19.60;;;17.77;;
46653;SDS011;38960;51.074;17.004;2023-08-24T00:38:10;19.98;;;18.33;;
46653;SDS011;38960;51.074;17.004;2023-08-24T00:40:36;19.70;;;17.85;;
46653;SDS011;38960;51.074;17.004;2023-08-24T00:43:04;20.00;;;18.35;;
46653;SDS011;38960;51.074;17.004;2023-08-24T00:45:30;19.73;;;18.02;;
46653;SDS011;38960;51.074;17.004;2023-08-24T00:47:56;19.42;;;17.83;;
46653;SDS011;38960;51.074;17.004;2023-08-24T00:50:21;20.77;;;19.00;;
46653;SDS011;38960;51.074;17.004;2023-08-24T00:52:47;19.52;;;17.85;;
46653;SDS011;38960;51.074;17.004;2023-08-24T00:55:14;19.63;;;17.70;;
46653;SDS011;38960;51.074;17.004;2023-08-24T00:57:39;19.02;;;17.45;;
46653;SDS011;38960;51.074;17.004;2023-08-24T01:00:08;19.70;;;18.08;;
46653;SDS011;38960;51.074;17.004;2023-08-24T01:02:38;18.67;;;17.17;;
46653;SDS011;38960;51.074;17.004;2023-08-24T01:05:04;22.40;;;20.35;;
46653;SDS011;38960;51.074;17.004;2023-08-24T01:07:34;19.45;;;17.63;;
46653;SDS011;38960;51.074;17.004;2023-08-24T01:10:05;20.05;;;18.38;;
46653;SDS011;38960;51.074;17.004;2023-08-24T01:15:38;20.88;;;19.17;;
46653;SDS011;38960;51.074;17.004;2023-08-24T01:18:11;20.40;;;18.83;;
46653;SDS011;38960;51.074;17.004;2023-08-24T01:20:40;18.92;;;17.50;;
46653;SDS011;38960;51.074;17.004;2023-08-24T01:28:22;20.48;;;18.65;;
46653;SDS011;38960;51.074;17.004;2023-08-24T01:30:48;20.35;;;18.77;;
46653;SDS011;38960;51.074;17.004;2023-08-24T01:33:14;19.52;;;17.73;;
46653;SDS011;38960;51.074;17.004;2023-08-24T01:35:40;19.33;;;17.95;;
46653;SDS011;38960;51.074;17.004;2023-08-24T01:38:07;19.35;;;17.85;;
46653;SDS011;38960;51.074;17.004;2023-08-24T01:40:39;20.08;;;18.38;;
46653;SDS011;38960;51.074;17.004;2023-08-24T01:43:13;19.17;;;17.80;;
46653;SDS011;38960;51.074;17.004;2023-08-24T01:45:39;20.10;;;18.38;;
46653;SDS011;38960;51.074;17.004;2023-08-24T01:48:06;20.80;;;18.95;;
46653;SDS011;38960;51.074;17.004;2023-08-24T01:50:33;20.90;;;18.70;;
46653;SDS011;38960;51.074;17.004;2023-08-24T01:52:58;19.13;;;17.65;;
46653;SDS011;38960;51.074;17.004;2023-08-24T01:55:24;19.77;;;17.60;;
46653;SDS011;38960;51.074;17.004;2023-08-24T01:57:50;20.40;;;18.65;;
46653;SDS011;38960;51.074;17.004;2023-08-24T02:00:16;19.63;;;17.92;;
46653;SDS011;38960;51.074;17.004;2023-08-24T02:02:45;18.92;;;17.60;;
46653;SDS011;38960;51.074;17.004;2023-08-24T02:05:11;19.67;;;18.17;;
46653;SDS011;38960;51.074;17.004;2023-08-24T02:07:38;20.08;;;18.48;;
46653;SDS011;38960;51.074;17.004;2023-08-24T02:10:04;20.17;;;18.52;;
46653;SDS011;38960;51.074;17.004;2023-08-24T02:12:30;19.95;;;18.50;;
46653;SDS011;38960;51.074;17.004;2023-08-24T02:14:56;20.50;;;18.75;;
46653;SDS011;38960;51.074;17.004;2023-08-24T02:17:21;19.80;;;18.25;;
46653;SDS011;38960;51.074;17.004;2023-08-24T02:19:47;21.02;;;19.08;;
46653;SDS011;38960;51.074;17.004;2023-08-24T02:22:13;20.83;;;19.02;;
46653;SDS011;38960;51.074;17.004;2023-08-24T02:24:38;20.63;;;18.88;;
46653;SDS011;38960;51.074;17.004;2023-08-24T02:27:04;20.48;;;18.40;;
46653;SDS011;38960;51.074;17.004;2023-08-24T02:29:30;20.63;;;18.73;;
46653;SDS011;38960;51.074;17.004;2023-08-24T02:31:55;21.33;;;19.38;;
46653;SDS011;38960;51.074;17.004;2023-08-24T02:34:21;21.40;;;19.50;;
46653;SDS011;38960;51.074;17.004;2023-08-24T02:36:46;20.27;;;18.70;;
46653;SDS011;38960;51.074;17.004;2023-08-24T02:39:12;20.88;;;18.67;;
46653;SDS011;38960;51.074;17.004;2023-08-24T02:41:37;21.50;;;19.40;;
46653;SDS011;38960;51.074;17.004;2023-08-24T02:44:03;22.70;;;19.23;;
46653;SDS011;38960;51.074;17.004;2023-08-24T02:46:29;20.77;;;18.77;;
46653;SDS011;38960;51.074;17.004;2023-08-24T02:48:54;21.10;;;19.20;;
46653;SDS011;38960;51.074;17.004;2023-08-24T02:51:23;19.98;;;18.38;;
46653;SDS011;38960;51.074;17.004;2023-08-24T02:53:49;20.17;;;18.42;;
46653;SDS011;38960;51.074;17.004;2023-08-24T02:56:15;20.60;;;18.85;;
46653;SDS011;38960;51.074;17.004;2023-08-24T02:58:40;20.92;;;18.83;;
46653;SDS011;38960;51.074;17.004;2023-08-24T03:01:06;22.02;;;19.88;;
46653;SDS011;38960;51.074;17.004;2023-08-24T03:03:33;21.13;;;19.30;;
46653;SDS011;38960;51.074;17.004;2023-08-24T03:06:00;21.80;;;19.65;;
46653;SDS011;38960;51.074;17.004;2023-08-24T03:08:28;21.25;;;19.45;;
46653;SDS011;38960;51.074;17.004;2023-08-24T03:10:55;21.25;;;19.20;;
46653;SDS011;38960;51.074;17.004;2023-08-24T03:13:20;22.90;;;20.58;;
46653;SDS011;38960;51.074;17.004;2023-08-24T03:15:46;21.75;;;19.85;;
46653;SDS011;38960;51.074;17.004;2023-08-24T03:18:12;22.65;;;20.40;;
46653;SDS011;38960;51.074;17.004;2023-08-24T03:20:39;21.75;;;19.67;;
46653;SDS011;38960;51.074;17.004;2023-08-24T03:23:05;22.30;;;20.35;;
46653;SDS011;38960;51.074;17.004;2023-08-24T03:25:32;23.13;;;20.80;;
46653;SDS011;38960;51.074;17.004;2023-08-24T03:28:01;32.83;;;21.38;;
46653;SDS011;38960;51.074;17.004;2023-08-24T03:30:27;21.45;;;19.65;;
46653;SDS011;38960;51.074;17.004;2023-08-24T03:32:52;21.35;;;19.58;;
46653;SDS011;38960;51.074;17.004;2023-08-24T03:35:18;22.55;;;20.17;;
46653;SDS011;38960;51.074;17.004;2023-08-24T03:37:44;22.13;;;19.60;;
46653;SDS011;38960;51.074;17.004;2023-08-24T03:40:09;21.48;;;19.65;;
46653;SDS011;38960;51.074;17.004;2023-08-24T03:42:35;21.73;;;19.80;;
46653;SDS011;38960;51.074;17.004;2023-08-24T03:45:01;23.30;;;21.05;;
46653;SDS011;38960;51.074;17.004;2023-08-24T03:47:26;24.83;;;19.60;;
46653;SDS011;38960;51.074;17.004;2023-08-24T03:49:52;22.52;;;20.10;;
46653;SDS011;38960;51.074;17.004;2023-08-24T03:52:17;23.08;;;19.75;;
46653;SDS011;38960;51.074;17.004;2023-08-24T03:54:43;21.50;;;19.33;;
46653;SDS011;38960;51.074;17.004;2023-08-24T03:57:08;22.40;;;20.45;;
46653;SDS011;38960;51.074;17.004;2023-08-24T03:59:34;22.63;;;20.65;;
46653;SDS011;38960;51.074;17.004;2023-08-24T04:02:00;22.70;;;20.50;;
46653;SDS011;38960;51.074;17.004;2023-08-24T04:04:27;21.48;;;19.55;;
46653;SDS011;38960;51.074;17.004;2023-08-24T04:06:53;22.20;;;20.25;;
46653;SDS011;38960;51.074;17.004;2023-08-24T04:09:19;22.15;;;19.80;;
46653;SDS011;38960;51.074;17.004;2023-08-24T04:11:46;20.73;;;19.33;;
46653;SDS011;38960;51.074;17.004;2023-08-24T04:14:14;21.98;;;19.98;;
46653;SDS011;38960;51.074;17.004;2023-08-24T04:16:40;22.33;;;20.27;;
46653;SDS011;38960;51.074;17.004;2023-08-24T04:19:07;22.35;;;20.35;;
46653;SDS011;38960;51.074;17.004;2023-08-24T04:21:32;22.00;;;20.15;;
46653;SDS011;38960;51.074;17.004;2023-08-24T04:23:58;21.48;;;19.30;;
46653;SDS011;38960;51.074;17.004;2023-08-24T04:26:24;21.98;;;20.08;;
46653;SDS011;38960;51.074;17.004;2023-08-24T04:28:50;21.80;;;20.10;;
46653;SDS011;38960;51.074;17.004;2023-08-24T04:31:15;21.73;;;19.92;;
46653;SDS011;38960;51.074;17.004;2023-08-24T04:33:41;22.25;;;20.30;;
46653;SDS011;38960;51.074;17.004;2023-08-24T04:36:06;21.30;;;19.48;;
46653;SDS011;38960;51.074;17.004;2023-08-24T04:38:32;22.63;;;20.58;;
46653;SDS011;38960;51.074;17.004;2023-08-24T04:40:57;21.58;;;19.70;;
46653;SDS011;38960;51.074;17.004;2023-08-24T04:43:23;23.05;;;20.95;;
46653;SDS011;38960;51.074;17.004;2023-08-24T04:45:50;21.90;;;20.15;;
46653;SDS011;38960;51.074;17.004;2023-08-24T04:48:20;21.97;;;20.10;;
46653;SDS011;38960;51.074;17.004;2023-08-24T04:50:46;22.17;;;20.23;;
46653;SDS011;38960;51.074;17.004;2023-08-24T04:53:13;21.67;;;19.40;;
46653;SDS011;38960;51.074;17.004;2023-08-24T04:55:40;22.75;;;20.42;;
46653;SDS011;38960;51.074;17.004;2023-08-24T04:58:09;21.60;;;19.67;;
46653;SDS011;38960;51.074;17.004;2023-08-24T05:00:36;22.27;;;20.35;;
46653;SDS011;38960;51.074;17.004;2023-08-24T05:03:02;21.67;;;19.98;;
46653;SDS011;38960;51.074;17.004;2023-08-24T05:05:29;22.05;;;20.20;;
46653;SDS011;38960;51.074;17.004;2023-08-24T05:07:55;22.75;;;20.90;;
46653;SDS011;38960;51.074;17.004;2023-08-24T05:10:21;30.02;;;21.40;;
46653;SDS011;38960;51.074;17.004;2023-08-24T05:12:47;24.02;;;21.27;;
46653;SDS011;38960;51.074;17.004;2023-08-24T05:15:12;21.60;;;19.70;;
46653;SDS011;38960;51.074;17.004;2023-08-24T05:17:39;21.85;;;20.05;;
46653;SDS011;38960;51.074;17.004;2023-08-24T05:20:05;21.73;;;19.88;;
46653;SDS011;38960;51.074;17.004;2023-08-24T05:22:33;22.17;;;20.58;;
46653;SDS011;38960;51.074;17.004;2023-08-24T05:24:58;22.02;;;20.23;;
46653;SDS011;38960;51.074;17.004;2023-08-24T05:27:24;22.33;;;20.27;;
46653;SDS011;38960;51.074;17.004;2023-08-24T05:29:49;22.00;;;20.30;;
46653;SDS011;38960;51.074;17.004;2023-08-24T05:32:15;21.75;;;19.67;;
46653;SDS011;38960;51.074;17.004;2023-08-24T05:34:40;21.55;;;19.75;;
46653;SDS011;38960;51.074;17.004;2023-08-24T05:37:06;21.02;;;19.52;;
46653;SDS011;38960;51.074;17.004;2023-08-24T05:39:31;22.75;;;20.98;;
46653;SDS011;38960;51.074;17.004;2023-08-24T05:41:57;21.42;;;19.40;;
46653;SDS011;38960;51.074;17.004;2023-08-24T05:44:22;21.65;;;19.88;;
46653;SDS011;38960;51.074;17.004;2023-08-24T05:46:48;21.45;;;19.60;;
46653;SDS011;38960;51.074;17.004;2023-08-24T05:49:13;22.58;;;20.33;;
46653;SDS011;38960;51.074;17.004;2023-08-24T05:51:39;21.35;;;19.85;;
46653;SDS011;38960;51.074;17.004;2023-08-24T05:54:05;21.83;;;19.83;;
46653;SDS011;38960;51.074;17.004;2023-08-24T05:56:30;24.25;;;19.92;;
46653;SDS011;38960;51.074;17.004;2023-08-24T05:58:57;21.67;;;20.05;;
46653;SDS011;38960;51.074;17.004;2023-08-24T06:01:23;20.65;;;19.20;;
46653;SDS011;38960;51.074;17.004;2023-08-24T06:03:49;20.35;;;18.80;;
46653;SDS011;38960;51.074;17.004;2023-08-24T06:06:15;21.20;;;19.17;;
46653;SDS011;38960;51.074;17.004;2023-08-24T06:08:41;20.80;;;19.25;;
46653;SDS011;38960;51.074;17.004;2023-08-24T06:11:06;20.15;;;18.45;;
46653;SDS011;38960;51.074;17.004;2023-08-24T06:13:32;20.13;;;17.98;;
46653;SDS011;38960;51.074;17.004;2023-08-24T06:15:58;20.15;;;18.52;;
46653;SDS011;38960;51.074;17.004;2023-08-24T06:18:23;20.42;;;18.75;;
46653;SDS011;38960;51.074;17.004;2023-08-24T06:20:49;19.38;;;17.98;;
46653;SDS011;38960;51.074;17.004;2023-08-24T06:23:17;19.23;;;17.92;;
46653;SDS011;38960;51.074;17.004;2023-08-24T06:25:43;19.58;;;18.05;;
46653;SDS011;38960;51.074;17.004;2023-08-24T06:28:09;20.77;;;19.23;;
46653;SDS011;38960;51.074;17.004;2023-08-24T06:30:39;20.20;;;18.70;;
46653;SDS011;38960;51.074;17.004;2023-08-24T06:33:12;19.40;;;17.98;;
46653;SDS011;38960;51.074;17.004;2023-08-24T06:35:38;21.38;;;19.13;;
46653;SDS011;38960;51.074;17.004;2023-08-24T06:38:04;20.23;;;18.73;;
46653;SDS011;38960;51.074;17.004;2023-08-24T06:40:29;19.98;;;18.40;;
46653;SDS011;38960;51.074;17.004;2023-08-24T06:42:56;19.50;;;18.15;;
46653;SDS011;38960;51.074;17.004;2023-08-24T06:45:22;19.88;;;18.35;;
46653;SDS011;38960;51.074;17.004;2023-08-24T06:47:47;19.60;;;18.20;;
46653;SDS011;38960;51.074;17.004;2023-08-24T06:50:13;18.73;;;17.38;;
46653;SDS011;38960;51.074;17.004;2023-08-24T06:52:40;18.55;;;17.25;;
46653;SDS011;38960;51.074;17.004;2023-08-24T06:55:07;20.17;;;18.67;;
46653;SDS011;38960;51.074;17.004;2023-08-24T06:57:34;19.58;;;17.88;;
46653;SDS011;38960;51.074;17.004;2023-08-24T06:59:59;20.23;;;18.63;;
46653;SDS011;38960;51.074;17.004;2023-08-24T07:02:25;21.70;;;20.08;;
46653;SDS011;38960;51.074;17.004;2023-08-24T07:04:51;20.65;;;19.35;;
46653;SDS011;38960;51.074;17.004;2023-08-24T07:07:16;20.35;;;18.52;;
46653;SDS011;38960;51.074;17.004;2023-08-24T07:09:42;20.27;;;18.75;;
46653;SDS011;38960;51.074;17.004;2023-08-24T07:12:08;20.05;;;18.70;;
46653;SDS011;38960;51.074;17.004;2023-08-24T07:14:38;20.50;;;18.83;;
46653;SDS011;38960;51.074;17.004;2023-08-24T07:17:05;20.63;;;19.23;;
46653;SDS011;38960;51.074;17.004;2023-08-24T07:19:31;20.45;;;18.98;;
46653;SDS011;38960;51.074;17.004;2023-08-24T07:21:56;19.08;;;17.88;;
46653;SDS011;38960;51.074;17.004;2023-08-24T07:24:22;20.00;;;18.60;;
46653;SDS011;38960;51.074;17.004;2023-08-24T07:26:54;21.05;;;19.55;;
46653;SDS011;38960;51.074;17.004;2023-08-24T07:29:20;20.92;;;19.33;;
46653;SDS011;38960;51.074;17.004;2023-08-24T07:31:46;19.25;;;18.05;;
46653;SDS011;38960;51.074;17.004;2023-08-24T07:34:11;21.85;;;19.70;;
46653;SDS011;38960;51.074;17.004;2023-08-24T07:36:37;20.30;;;18.77;;
46653;SDS011;38960;51.074;17.004;2023-08-24T07:39:02;20.35;;;18.92;;
46653;SDS011;38960;51.074;17.004;2023-08-24T07:41:28;20.23;;;18.80;;
46653;SDS011;38960;51.074;17.004;2023-08-24T07:43:54;18.98;;;17.77;;
46653;SDS011;38960;51.074;17.004;2023-08-24T07:46:19;20.85;;;19.02;;
46653;SDS011;38960;51.074;17.004;2023-08-24T07:48:45;18.80;;;17.60;;
46653;SDS011;38960;51.074;17.004;2023-08-24T07:51:10;19.75;;;18.35;;
46653;SDS011;38960;51.074;17.004;2023-08-24T07:53:36;20.30;;;18.90;;
46653;SDS011;38960;51.074;17.004;2023-08-24T07:56:02;21.15;;;19.63;;
46653;SDS011;38960;51.074;17.004;2023-08-24T07:58:28;20.27;;;18.73;;
46653;SDS011;38960;51.074;17.004;2023-08-24T08:00:53;20.33;;;18.92;;
46653;SDS011;38960;51.074;17.004;2023-08-24T08:03:19;20.40;;;18.90;;
46653;SDS011;38960;51.074;17.004;2023-08-24T08:05:46;21.45;;;19.80;;
46653;SDS011;38960;51.074;17.004;2023-08-24T08:08:15;20.23;;;18.83;;
46653;SDS011;38960;51.074;17.004;2023-08-24T08:13:06;20.52;;;18.95;;
46653;SDS011;38960;51.074;17.004;2023-08-24T08:15:32;20.05;;;18.63;;
46653;SDS011;38960;51.074;17.004;2023-08-24T08:17:58;20.27;;;18.77;;
46653;SDS011;38960;51.074;17.004;2023-08-24T08:20:23;19.73;;;18.42;;
46653;SDS011;38960;51.074;17.004;2023-08-24T08:22:49;21.08;;;19.38;;
46653;SDS011;38960;51.074;17.004;2023-08-24T08:25:15;19.77;;;18.40;;
46653;SDS011;38960;51.074;17.004;2023-08-24T08:27:43;20.52;;;18.63;;
46653;SDS011;38960;51.074;17.004;2023-08-24T08:30:09;19.70;;;18.40;;
46653;SDS011;38960;51.074;17.004;2023-08-24T08:32:35;20.42;;;18.75;;
46653;SDS011;38960;51.074;17.004;2023-08-24T08:35:01;20.05;;;18.55;;
46653;SDS011;38960;51.074;17.004;2023-08-24T08:37:27;20.40;;;18.80;;
46653;SDS011;38960;51.074;17.004;2023-08-24T08:39:53;20.70;;;19.30;;
46653;SDS011;38960;51.074;17.004;2023-08-24T08:42:18;19.58;;;17.92;;
46653;SDS011;38960;51.074;17.004;2023-08-24T08:44:45;20.70;;;19.17;;
46653;SDS011;38960;51.074;17.004;2023-08-24T08:47:11;21.93;;;20.43;;
46653;SDS011;38960;51.074;17.004;2023-08-24T08:49:38;25.27;;;23.58;;
46653;SDS011;38960;51.074;17.004;2023-08-24T08:52:04;23.85;;;22.15;;
46653;SDS011;38960;51.074;17.004;2023-08-24T08:54:30;24.30;;;22.73;;
46653;SDS011;38960;51.074;17.004;2023-08-24T08:56:58;21.52;;;20.00;;
46653;SDS011;38960;51.074;17.004;2023-08-24T08:59:24;20.92;;;19.38;;
46653;SDS011;38960;51.074;17.004;2023-08-24T09:01:56;22.13;;;20.70;;
46653;SDS011;38960;51.074;17.004;2023-08-24T09:04:22;20.03;;;18.80;;
46653;SDS011;38960;51.074;17.004;2023-08-24T09:06:49;21.33;;;19.90;;
46653;SDS011;38960;51.074;17.004;2023-08-24T09:09:14;21.23;;;19.67;;
46653;SDS011;38960;51.074;17.004;2023-08-24T09:11:40;20.83;;;19.42;;
46653;SDS011;38960;51.074;17.004;2023-08-24T09:14:07;20.27;;;18.88;;
46653;SDS011;38960;51.074;17.004;2023-08-24T09:16:33;21.13;;;19.83;;
46653;SDS011;38960;51.074;17.004;2023-08-24T09:18:58;20.52;;;19.15;;
46653;SDS011;38960;51.074;17.004;2023-08-24T09:21:24;20.48;;;19.00;;
46653;SDS011;38960;51.074;17.004;2023-08-24T09:23:54;20.92;;;19.48;;
46653;SDS011;38960;51.074;17.004;2023-08-24T09:28:59;19.60;;;18.20;;
46653;SDS011;38960;51.074;17.004;2023-08-24T09:31:35;19.10;;;17.70;;
46653;SDS011;38960;51.074;17.004;2023-08-24T09:34:02;19.83;;;18.50;;
46653;SDS011;38960;51.074;17.004;2023-08-24T09:36:32;18.80;;;17.60;;
46653;SDS011;38960;51.074;17.004;2023-08-24T09:38:58;19.75;;;18.45;;
46653;SDS011;38960;51.074;17.004;2023-08-24T09:44:04;20.35;;;18.92;;
46653;SDS011;38960;51.074;17.004;2023-08-24T09:46:30;19.88;;;18.45;;
46653;SDS011;38960;51.074;17.004;2023-08-24T09:48:56;19.60;;;18.20;;
46653;SDS011;38960;51.074;17.004;2023-08-24T09:51:24;19.90;;;18.52;;
46653;SDS011;38960;51.074;17.004;2023-08-24T09:53:51;20.23;;;18.92;;
46653;SDS011;38960;51.074;17.004;2023-08-24T09:56:18;19.20;;;17.85;;
46653;SDS011;38960;51.074;17.004;2023-08-24T09:58:45;20.73;;;19.00;;
46653;SDS011;38960;51.074;17.004;2023-08-24T10:01:11;19.90;;;18.60;;
46653;SDS011;38960;51.074;17.004;2023-08-24T10:03:37;21.02;;;19.63;;
46653;SDS011;38960;51.074;17.004;2023-08-24T10:06:05;20.90;;;19.23;;
46653;SDS011;38960;51.074;17.004;2023-08-24T10:08:37;19.75;;;18.35;;
46653;SDS011;38960;51.074;17.004;2023-08-24T10:11:05;19.58;;;18.35;;
46653;SDS011;38960;51.074;17.004;2023-08-24T10:16:15;19.50;;;17.98;;
46653;SDS011;38960;51.074;17.004;2023-08-24T10:18:41;19.75;;;18.17;;
46653;SDS011;38960;51.074;17.004;2023-08-24T10:21:07;20.70;;;19.05;;
46653;SDS011;38960;51.074;17.004;2023-08-24T10:23:34;19.20;;;18.00;;
46653;SDS011;38960;51.074;17.004;2023-08-24T10:26:00;19.80;;;18.40;;
46653;SDS011;38960;51.074;17.004;2023-08-24T10:28:27;20.13;;;18.23;;
46653;SDS011;38960;51.074;17.004;2023-08-24T10:30:53;18.98;;;17.73;;
46653;SDS011;38960;51.074;17.004;2023-08-24T10:33:19;20.67;;;19.17;;
46653;SDS011;38960;51.074;17.004;2023-08-24T10:35:46;20.83;;;19.10;;
46653;SDS011;38960;51.074;17.004;2023-08-24T10:38:30;20.83;;;19.30;;
46653;SDS011;38960;51.074;17.004;2023-08-24T10:41:03;20.23;;;18.75;;
46653;SDS011;38960;51.074;17.004;2023-08-24T10:43:29;20.13;;;18.63;;
46653;SDS011;38960;51.074;17.004;2023-08-24T10:48:27;19.27;;;17.67;;
46653;SDS011;38960;51.074;17.004;2023-08-24T10:53:50;19.88;;;18.15;;
46653;SDS011;38960;51.074;17.004;2023-08-24T10:56:21;19.13;;;17.90;;
46653;SDS011;38960;51.074;17.004;2023-08-24T10:59:16;19.17;;;17.73;;
46653;SDS011;38960;51.074;17.004;2023-08-24T11:01:43;20.20;;;18.50;;
46653;SDS011;38960;51.074;17.004;2023-08-24T11:04:23;19.70;;;18.35;;
46653;SDS011;38960;51.074;17.004;2023-08-24T11:09:23;19.40;;;18.17;;
46653;SDS011;38960;51.074;17.004;2023-08-24T11:11:55;18.77;;;17.58;;
46653;SDS011;38960;51.074;17.004;2023-08-24T11:14:25;19.95;;;18.55;;
46653;SDS011;38960;51.074;17.004;2023-08-24T11:16:52;19.77;;;18.23;;
46653;SDS011;38960;51.074;17.004;2023-08-24T11:19:17;20.35;;;18.45;;
46653;SDS011;38960;51.074;17.004;2023-08-24T11:21:45;19.23;;;17.85;;
46653;SDS011;38960;51.074;17.004;2023-08-24T11:24:14;19.02;;;17.67;;
46653;SDS011;38960;51.074;17.004;2023-08-24T11:26:44;19.67;;;18.27;;
46653;SDS011;38960;51.074;17.004;2023-08-24T11:29:13;19.75;;;18.30;;
46653;SDS011;38960;51.074;17.004;2023-08-24T11:31:39;19.27;;;17.95;;
46653;SDS011;38960;51.074;17.004;2023-08-24T11:34:05;18.90;;;17.60;;
46653;SDS011;38960;51.074;17.004;2023-08-24T11:36:40;19.95;;;18.63;;
46653;SDS011;38960;51.074;17.004;2023-08-24T11:39:07;19.70;;;18.20;;
46653;SDS011;38960;51.074;17.004;2023-08-24T11:41:39;19.15;;;17.40;;
46653;SDS011;38960;51.074;17.004;2023-08-24T11:44:05;19.88;;;18.35;;
46653;SDS011;38960;51.074;17.004;2023-08-24T11:46:31;20.60;;;19.08;;
46653;SDS011;38960;51.074;17.004;2023-08-24T11:48:57;19.08;;;17.88;;
46653;SDS011;38960;51.074;17.004;2023-08-24T11:51:24;19.05;;;17.52;;
46653;SDS011;38960;51.074;17.004;2023-08-24T11:53:49;18.75;;;17.45;;
46653;SDS011;38960;51.074;17.004;2023-08-24T11:56:15;18.60;;;17.40;;
46653;SDS011;38960;51.074;17.004;2023-08-24T11:58:47;19.17;;;17.73;;
46653;SDS011;38960;51.074;17.004;2023-08-24T12:01:15;19.33;;;18.05;;
46653;SDS011;38960;51.074;17.004;2023-08-24T12:03:41;18.80;;;17.60;;
46653;SDS011;38960;51.074;17.004;2023-08-24T12:06:13;18.83;;;17.52;;
46653;SDS011;38960;51.074;17.004;2023-08-24T12:08:40;19.00;;;17.63;;
46653;SDS011;38960;51.074;17.004;2023-08-24T12:11:13;19.55;;;17.98;;
46653;SDS011;38960;51.074;17.004;2023-08-24T12:13:45;20.58;;;18.75;;
46653;SDS011;38960;51.074;17.004;2023-08-24T12:16:17;20.10;;;18.67;;
46653;SDS011;38960;51.074;17.004;2023-08-24T12:18:47;19.10;;;17.90;;
46653;SDS011;38960;51.074;17.004;2023-08-24T12:21:17;19.60;;;18.27;;
46653;SDS011;38960;51.074;17.004;2023-08-24T12:23:44;19.02;;;17.92;;
46653;SDS011;38960;51.074;17.004;2023-08-24T12:26:19;19.60;;;18.10;;
46653;SDS011;38960;51.074;17.004;2023-08-24T12:28:48;19.20;;;17.75;;
46653;SDS011;38960;51.074;17.004;2023-08-24T12:31:15;19.23;;;17.80;;
46653;SDS011;38960;51.074;17.004;2023-08-24T12:33:42;20.02;;;18.65;;
46653;SDS011;38960;51.074;17.004;2023-08-24T12:36:08;20.00;;;18.70;;
46653;SDS011;38960;51.074;17.004;2023-08-24T12:38:33;20.15;;;18.63;;
46653;SDS011;38960;51.074;17.004;2023-08-24T12:41:00;19.15;;;17.98;;
46653;SDS011;38960;51.074;17.004;2023-08-24T12:43:26;18.40;;;17.10;;
46653;SDS011;38960;51.074;17.004;2023-08-24T12:45:51;19.08;;;17.70;;
46653;SDS011;38960;51.074;17.004;2023-08-24T12:48:17;19.20;;;17.90;;
46653;SDS011;38960;51.074;17.004;2023-08-24T12:50:43;19.10;;;17.88;;
46653;SDS011;38960;51.074;17.004;2023-08-24T12:53:08;19.95;;;18.38;;
46653;SDS011;38960;51.074;17.004;2023-08-24T12:55:34;31.35;;;20.27;;
46653;SDS011;38960;51.074;17.004;2023-08-24T12:58:01;21.58;;;19.52;;
46653;SDS011;38960;51.074;17.004;2023-08-24T13:00:27;20.80;;;18.55;;
46653;SDS011;38960;51.074;17.004;2023-08-24T13:02:53;19.65;;;18.17;;
46653;SDS011;38960;51.074;17.004;2023-08-24T13:05:18;19.80;;;18.58;;
46653;SDS011;38960;51.074;17.004;2023-08-24T13:07:44;19.85;;;18.35;;
46653;SDS011;38960;51.074;17.004;2023-08-24T13:10:09;19.98;;;18.23;;
46653;SDS011;38960;51.074;17.004;2023-08-24T13:12:36;19.10;;;17.52;;
46653;SDS011;38960;51.074;17.004;2023-08-24T13:15:02;18.52;;;17.33;;
46653;SDS011;38960;51.074;17.004;2023-08-24T13:17:29;19.10;;;17.67;;
46653;SDS011;38960;51.074;17.004;2023-08-24T13:19:55;19.33;;;17.70;;
46653;SDS011;38960;51.074;17.004;2023-08-24T13:22:21;19.67;;;18.27;;
46653;SDS011;38960;51.074;17.004;2023-08-24T13:24:46;18.90;;;17.70;;
46653;SDS011;38960;51.074;17.004;2023-08-24T13:27:12;18.80;;;17.63;;
46653;SDS011;38960;51.074;17.004;2023-08-24T13:29:37;19.27;;;18.08;;
46653;SDS011;38960;51.074;17.004;2023-08-24T13:32:03;18.85;;;17.45;;
46653;SDS011;38960;51.074;17.004;2023-08-24T13:34:30;19.48;;;17.83;;
46653;SDS011;38960;51.074;17.004;2023-08-24T13:36:59;19.02;;;17.52;;
46653;SDS011;38960;51.074;17.004;2023-08-24T13:39:27;18.23;;;16.92;;
46653;SDS011;38960;51.074;17.004;2023-08-24T13:41:53;18.38;;;17.08;;
46653;SDS011;38960;51.074;17.004;2023-08-24T13:44:19;18.05;;;16.90;;
46653;SDS011;38960;51.074;17.004;2023-08-24T13:46:45;18.60;;;17.13;;
46653;SDS011;38960;51.074;17.004;2023-08-24T13:49:11;19.77;;;18.48;;
46653;SDS011;38960;51.074;17.004;2023-08-24T13:51:37;18.73;;;17.52;;
46653;SDS011;38960;51.074;17.004;2023-08-24T13:54:02;19.05;;;17.75;;
46653;SDS011;38960;51.074;17.004;2023-08-24T13:56:28;18.20;;;17.05;;
46653;SDS011;38960;51.074;17.004;2023-08-24T13:58:54;18.08;;;16.88;;
46653;SDS011;38960;51.074;17.004;2023-08-24T14:01:19;20.70;;;18.65;;
46653;SDS011;38960;51.074;17.004;2023-08-24T14:03:45;19.52;;;17.95;;
46653;SDS011;38960;51.074;17.004;2023-08-24T14:06:10;18.80;;;17.52;;
46653;SDS011;38960;51.074;17.004;2023-08-24T14:08:36;19.17;;;17.63;;
46653;SDS011;38960;51.074;17.004;2023-08-24T14:11:01;19.90;;;18.38;;
46653;SDS011;38960;51.074;17.004;2023-08-24T14:13:28;19.15;;;17.83;;
46653;SDS011;38960;51.074;17.004;2023-08-24T14:15:54;19.23;;;17.70;;
46653;SDS011;38960;51.074;17.004;2023-08-24T14:18:21;19.08;;;17.75;;
46653;SDS011;38960;51.074;17.004;2023-08-24T14:20:47;19.15;;;17.75;;
46653;SDS011;38960;51.074;17.004;2023-08-24T14:23:13;18.23;;;16.73;;
46653;SDS011;38960;51.074;17.004;2023-08-24T14:25:38;18.08;;;16.70;;
46653;SDS011;38960;51.074;17.004;2023-08-24T14:28:04;19.48;;;17.52;;
46653;SDS011;38960;51.074;17.004;2023-08-24T14:30:29;19.33;;;17.63;;
46653;SDS011;38960;51.074;17.004;2023-08-24T14:32:55;18.88;;;17.40;;